Time;durP1;ratioP1;P1;durP2;ratioP2;P2;SDS_P1;SDS_P2;PMS_P1;PMS_P2;Temp;Humidity;BMP_temperature;BMP_pressure;BME280_temperature;BME280_humidity;BME280_pressure;Samples;Min_cycle;Max_cycle;Signal;HPM_P1;HPM_P2
2021/10/21 00:00:46;;;;;;;8.68;3.03;;;14.30;99.90;;;;;;5053211;28;20123;-76
2021/10/21 00:03:14;;;;;;;10.57;3.13;;;14.30;99.90;;;;;;5048572;28;20041;-76
2021/10/21 00:05:40;;;;;;;6.78;2.75;;;14.30;99.90;;;;;;5044289;28;20049;-76
2021/10/21 00:08:07;;;;;;;11.15;3.45;;;14.30;99.90;;;;;;5029297;28;20144;-76
2021/10/21 00:10:34;;;;;;;7.93;3.15;;;14.30;99.90;;;;;;5032420;28;20842;-76
2021/10/21 00:13:01;;;;;;;11.27;3.55;;;14.30;99.90;;;;;;5047228;28;20080;-76
2021/10/21 00:15:27;;;;;;;11.75;3.40;;;14.40;99.90;;;;;;5044074;28;20053;-76
2021/10/21 00:17:54;;;;;;;8.27;3.25;;;14.30;99.90;;;;;;5044752;28;20847;-76
2021/10/21 00:20:21;;;;;;;12.18;3.88;;;14.30;99.90;;;;;;5044771;28;20130;-76
2021/10/21 00:22:48;;;;;;;8.05;3.08;;;14.30;99.90;;;;;;5048888;28;20122;-76
2021/10/21 00:25:15;;;;;;;15.32;3.55;;;14.30;99.90;;;;;;5045193;28;20044;-76
2021/10/21 00:27:41;;;;;;;7.97;3.38;;;14.20;99.90;;;;;;5026994;28;20083;-76
2021/10/21 00:30:08;;;;;;;14.95;3.95;;;14.20;99.90;;;;;;5046953;28;20490;-76
2021/10/21 00:32:36;;;;;;;26.90;5.15;;;14.10;99.90;;;;;;5044681;28;20164;-74
2021/10/21 00:35:03;;;;;;;10.70;3.80;;;14.10;99.90;;;;;;5047306;28;20132;-76
2021/10/21 00:37:31;;;;;;;9.02;3.90;;;14.20;99.90;;;;;;5048832;28;20099;-76
2021/10/21 00:39:58;;;;;;;15.40;4.68;;;14.20;99.90;;;;;;5033297;28;20527;-76
2021/10/21 00:42:24;;;;;;;9.43;4.35;;;14.20;99.90;;;;;;5035015;28;20595;-76
2021/10/21 00:44:51;;;;;;;9.35;4.38;;;14.20;99.90;;;;;;5049090;28;20464;-75
2021/10/21 00:47:19;;;;;;;13.65;4.53;;;14.20;99.90;;;;;;5048463;28;20132;-76
2021/10/21 00:49:47;;;;;;;13.18;4.68;;;14.30;99.90;;;;;;5050854;28;20159;-75
2021/10/21 00:52:14;;;;;;;12.85;5.68;;;14.30;99.90;;;;;;5050967;28;20088;-76
2021/10/21 00:54:42;;;;;;;6.20;4.55;;;14.20;99.90;;;;;;5039488;28;20085;-75
2021/10/21 00:57:12;;;;;;;15.60;5.53;;;14.20;99.90;;;;;;5030366;28;20045;-76
2021/10/21 00:59:41;;;;;;;14.50;6.00;;;14.20;99.90;;;;;;5030111;28;20152;-76
2021/10/21 01:02:09;;;;;;;10.38;5.00;;;14.20;99.90;;;;;;5053572;28;20058;-75
2021/10/21 01:04:36;;;;;;;15.43;5.72;;;14.20;99.90;;;;;;5048199;28;20151;-76
2021/10/21 01:07:03;;;;;;;11.95;5.18;;;14.20;99.90;;;;;;5048084;28;20088;-76
2021/10/21 01:09:32;;;;;;;10.05;5.07;;;14.20;99.90;;;;;;5062834;28;20139;-75
2021/10/21 01:11:59;;;;;;;12.88;5.45;;;14.30;99.90;;;;;;5033310;28;20151;-76
2021/10/21 01:14:26;;;;;;;13.73;4.47;;;14.30;99.90;;;;;;5058006;28;20088;-76
2021/10/21 01:16:53;;;;;;;9.82;4.65;;;14.30;99.90;;;;;;5033057;28;20076;-76
2021/10/21 01:19:23;;;;;;;11.43;4.35;;;14.30;99.90;;;;;;5029289;28;20124;-76
2021/10/21 01:21:52;;;;;;;9.32;5.15;;;14.30;99.90;;;;;;5061171;28;20080;-75
2021/10/21 01:24:20;;;;;;;9.15;4.47;;;14.30;99.90;;;;;;5039368;28;20128;-75
2021/10/21 01:26:49;;;;;;;10.80;4.50;;;14.30;99.90;;;;;;5048869;28;20091;-75
2021/10/21 01:29:21;;;;;;;14.50;5.32;;;14.40;99.90;;;;;;5047931;28;20458;-76
2021/10/21 01:31:50;;;;;;;7.78;4.45;;;14.40;99.90;;;;;;5029957;28;20196;-75
2021/10/21 01:34:16;;;;;;;8.57;4.75;;;14.40;99.90;;;;;;5030642;28;20061;-75
2021/10/21 01:36:53;;;;;;;9.35;4.40;;;14.40;99.90;;;;;;5049851;28;20124;-75
2021/10/21 01:39:21;;;;;;;17.45;5.57;;;14.40;99.90;;;;;;5064716;28;20132;-75
2021/10/21 01:41:48;;;;;;;8.93;4.53;;;14.30;99.90;;;;;;5055215;28;20123;-75
2021/10/21 01:44:15;;;;;;;16.80;4.80;;;14.30;99.90;;;;;;5047250;28;20199;-75
2021/10/21 01:46:42;;;;;;;9.10;4.03;;;14.40;99.90;;;;;;5047456;28;20092;-75
2021/10/21 01:49:09;;;;;;;12.13;4.10;;;14.40;99.90;;;;;;5051349;28;20056;-75
2021/10/21 01:51:35;;;;;;;7.68;4.70;;;14.40;99.90;;;;;;5052504;28;20091;-75
2021/10/21 01:54:02;;;;;;;10.60;4.80;;;14.50;99.90;;;;;;5050023;28;20055;-75
2021/10/21 01:56:29;;;;;;;6.03;4.38;;;14.60;99.90;;;;;;5054580;28;20064;-75
2021/10/21 01:58:56;;;;;;;7.43;4.85;;;14.70;99.90;;;;;;5033717;28;20049;-75
2021/10/21 02:01:23;;;;;;;6.72;3.60;;;14.80;99.90;;;;;;5051078;28;20136;-75
2021/10/21 02:03:50;;;;;;;7.32;4.13;;;14.80;99.90;;;;;;5052097;28;20143;-76
2021/10/21 02:06:17;;;;;;;7.35;4.65;;;14.80;99.90;;;;;;5029685;28;20533;-76
2021/10/21 02:08:43;;;;;;;8.57;4.28;;;14.80;99.90;;;;;;5058219;28;20087;-76
2021/10/21 02:11:10;;;;;;;10.60;5.20;;;14.80;99.90;;;;;;5032294;28;20169;-76
2021/10/21 02:13:37;;;;;;;10.77;4.95;;;14.70;99.90;;;;;;5052430;28;20156;-75
2021/10/21 02:16:04;;;;;;;9.30;4.78;;;14.60;99.90;;;;;;5030128;28;20137;-75
2021/10/21 02:18:31;;;;;;;7.10;4.28;;;14.60;99.90;;;;;;5029473;28;20060;-75
2021/10/21 02:20:58;;;;;;;13.50;4.05;;;14.70;99.90;;;;;;5029707;28;20049;-75
2021/10/21 02:23:25;;;;;;;12.07;4.70;;;14.60;99.90;;;;;;5045701;28;20118;-75
2021/10/21 02:25:51;;;;;;;10.48;5.40;;;14.60;99.90;;;;;;5044861;28;20148;-75
2021/10/21 02:28:18;;;;;;;10.10;4.70;;;14.60;99.90;;;;;;5029644;28;20049;-75
2021/10/21 02:30:45;;;;;;;8.75;4.65;;;14.60;99.90;;;;;;5046852;28;20145;-75
2021/10/21 02:33:13;;;;;;;14.05;4.45;;;14.60;99.90;;;;;;5046524;28;20084;-75
2021/10/21 02:35:40;;;;;;;9.00;4.85;;;14.60;99.90;;;;;;5046698;28;20743;-76
2021/10/21 02:38:07;;;;;;;6.57;4.32;;;14.60;99.90;;;;;;5039497;28;20088;-76
2021/10/21 02:40:34;;;;;;;9.27;4.78;;;14.70;99.90;;;;;;5036981;28;20084;-77
2021/10/21 02:43:00;;;;;;;10.68;5.57;;;14.80;99.90;;;;;;5036157;28;20085;-77
2021/10/21 02:45:27;;;;;;;18.52;5.85;;;14.70;99.90;;;;;;5048090;28;20647;-77
2021/10/21 02:47:54;;;;;;;13.38;6.22;;;14.70;99.90;;;;;;5048920;28;20469;-76
2021/10/21 02:50:21;;;;;;;10.80;5.45;;;14.70;99.90;;;;;;5047437;28;20148;-77
2021/10/21 02:52:48;;;;;;;10.80;5.80;;;14.70;99.90;;;;;;5047841;28;20570;-76
2021/10/21 02:55:15;;;;;;;9.18;5.32;;;14.60;99.90;;;;;;5041631;28;20151;-76
2021/10/21 02:57:42;;;;;;;17.25;6.10;;;14.50;99.90;;;;;;5048616;28;20589;-76
2021/10/21 03:00:10;;;;;;;14.20;6.38;;;14.50;99.90;;;;;;5046585;28;20552;-76
2021/10/21 03:02:37;;;;;;;12.18;6.15;;;14.50;99.90;;;;;;5046284;28;20132;-76
2021/10/21 03:05:06;;;;;;;13.25;6.00;;;14.50;99.90;;;;;;5028957;28;20139;-76
2021/10/21 03:07:33;;;;;;;15.05;6.88;;;14.50;99.90;;;;;;5052287;28;20121;-76
2021/10/21 03:09:59;;;;;;;12.55;6.05;;;14.50;99.90;;;;;;5055187;28;20136;-76
2021/10/21 03:12:26;;;;;;;9.63;5.97;;;14.40;99.90;;;;;;5026554;28;20133;-76
2021/10/21 03:14:53;;;;;;;16.52;6.22;;;14.40;99.90;;;;;;5046601;28;20049;-76
2021/10/21 03:17:20;;;;;;;11.43;6.40;;;14.50;99.90;;;;;;5051263;28;20880;-76
2021/10/21 03:19:47;;;;;;;13.05;7.13;;;14.50;99.90;;;;;;5039344;28;20071;-76
2021/10/21 03:22:15;;;;;;;15.70;6.60;;;14.40;99.90;;;;;;5046408;28;20560;-77
2021/10/21 03:24:41;;;;;;;14.75;6.43;;;14.40;99.90;;;;;;5046104;28;20064;-75
2021/10/21 03:27:08;;;;;;;12.82;6.75;;;14.40;99.90;;;;;;5028695;28;20072;-76
2021/10/21 03:29:36;;;;;;;12.45;6.28;;;14.40;99.90;;;;;;5045570;28;20139;-76
2021/10/21 03:32:03;;;;;;;13.93;6.97;;;14.30;99.90;;;;;;5046128;28;20161;-76
2021/10/21 03:34:32;;;;;;;14.23;7.22;;;14.30;99.90;;;;;;5049809;28;20087;-76
2021/10/21 03:36:59;;;;;;;13.25;6.57;;;14.40;99.90;;;;;;5027053;28;20140;-76
2021/10/21 03:39:26;;;;;;;13.90;6.85;;;14.40;99.90;;;;;;5047630;28;20148;-77
2021/10/21 03:41:53;;;;;;;18.80;7.07;;;14.40;99.90;;;;;;5044983;28;20561;-76
2021/10/21 03:44:20;;;;;;;13.23;7.32;;;14.40;99.90;;;;;;5037649;28;20168;-76
2021/10/21 03:46:46;;;;;;;17.17;7.65;;;14.40;99.90;;;;;;5025730;28;20139;-76
2021/10/21 03:49:13;;;;;;;14.25;7.63;;;14.40;99.90;;;;;;5037896;28;20076;-77
2021/10/21 03:51:40;;;;;;;17.02;7.88;;;14.40;99.90;;;;;;5027917;28;20164;-76
2021/10/21 03:54:07;;;;;;;15.02;7.97;;;14.50;99.90;;;;;;5045714;28;20132;-76
2021/10/21 03:56:33;;;;;;;15.75;8.20;;;14.50;99.90;;;;;;5045055;28;20490;-76
2021/10/21 03:59:00;;;;;;;11.85;7.35;;;14.50;99.90;;;;;;5045228;28;20069;-76
2021/10/21 04:01:27;;;;;;;17.13;8.55;;;14.50;99.90;;;;;;5045563;28;20080;-76
2021/10/21 04:03:54;;;;;;;14.40;8.40;;;14.50;99.90;;;;;;5030742;28;20049;-76
2021/10/21 04:06:21;;;;;;;13.57;7.82;;;14.50;99.90;;;;;;5050875;28;20945;-76
2021/10/21 04:08:48;;;;;;;11.50;7.85;;;14.50;99.90;;;;;;5046334;28;20061;-76
2021/10/21 04:11:14;;;;;;;14.20;8.13;;;14.50;99.90;;;;;;5045643;28;20127;-76
2021/10/21 04:13:41;;;;;;;14.63;7.95;;;14.60;99.90;;;;;;5051503;28;20135;-76
2021/10/21 04:16:08;;;;;;;16.02;8.20;;;14.60;99.90;;;;;;5045334;28;20053;-76
2021/10/21 04:18:34;;;;;;;14.32;8.05;;;14.60;99.90;;;;;;5058745;28;20055;-77
2021/10/21 04:21:01;;;;;;;15.02;8.20;;;14.70;99.90;;;;;;5045475;28;20092;-76
2021/10/21 04:23:28;;;;;;;18.63;7.85;;;14.60;99.90;;;;;;5046202;28;20081;-76
2021/10/21 04:25:54;;;;;;;27.40;9.75;;;14.70;99.90;;;;;;5027891;28;20045;-77
2021/10/21 04:28:21;;;;;;;13.93;7.50;;;14.70;99.90;;;;;;5045923;28;20139;-76
2021/10/21 04:30:48;;;;;;;16.77;7.50;;;14.80;99.90;;;;;;5045581;28;20052;-77
2021/10/21 04:33:15;;;;;;;14.82;7.57;;;14.80;99.90;;;;;;5037684;28;20129;-76
2021/10/21 04:35:42;;;;;;;15.95;7.75;;;14.80;99.90;;;;;;5034134;28;20049;-76
2021/10/21 04:38:08;;;;;;;12.45;6.93;;;14.80;99.90;;;;;;5048456;28;20076;-76
2021/10/21 04:40:35;;;;;;;13.10;7.13;;;14.70;99.90;;;;;;5034952;28;20663;-76
2021/10/21 04:43:02;;;;;;;13.93;7.78;;;14.80;99.90;;;;;;5047489;28;20128;-76
2021/10/21 04:45:30;;;;;;;18.50;7.22;;;14.80;99.90;;;;;;5031507;28;20057;-76
2021/10/21 04:47:57;;;;;;;11.77;6.53;;;14.90;99.90;;;;;;5031150;28;20044;-77
2021/10/21 04:50:24;;;;;;;11.95;7.25;;;14.90;99.90;;;;;;5051719;28;20756;-76
2021/10/21 04:52:55;;;;;;;14.25;6.90;;;14.90;99.90;;;;;;5047499;28;20326;-77
2021/10/21 04:55:23;;;;;;;15.00;7.18;;;14.90;99.90;;;;;;5046961;28;20083;-77
2021/10/21 04:57:51;;;;;;;11.98;6.78;;;14.90;99.90;;;;;;5047152;28;20128;-77
2021/10/21 05:00:19;;;;;;;10.00;6.68;;;14.90;99.90;;;;;;5045995;28;20052;-77
2021/10/21 05:02:46;;;;;;;9.65;6.10;;;14.90;99.90;;;;;;5032525;28;20044;-76
2021/10/21 05:05:14;;;;;;;11.00;6.00;;;15.00;99.90;;;;;;5050239;28;20049;-76
2021/10/21 05:07:40;;;;;;;10.07;5.45;;;15.00;99.90;;;;;;5046157;28;20839;-76
2021/10/21 05:10:07;;;;;;;8.20;5.13;;;15.10;99.90;;;;;;5045695;28;20160;-77
2021/10/21 05:12:34;;;;;;;12.52;5.47;;;15.10;99.90;;;;;;5049810;28;20570;-78
2021/10/21 05:15:01;;;;;;;6.93;4.45;;;15.30;99.90;;;;;;5029829;28;20134;-83
2021/10/21 05:17:29;;;;;;;14.35;4.40;;;15.30;99.90;;;;;;5034907;28;20440;-80
2021/10/21 05:19:55;;;;;;;11.32;4.30;;;15.30;99.90;;;;;;5043805;28;20118;-82
2021/10/21 05:22:22;;;;;;;13.38;4.50;;;15.40;99.90;;;;;;5039391;28;20139;-83
2021/10/21 05:24:49;;;;;;;13.38;4.85;;;15.50;99.90;;;;;;5036135;28;20124;-81
2021/10/21 05:27:16;;;;;;;7.43;4.20;;;15.40;99.90;;;;;;5036303;28;20091;-82
2021/10/21 05:29:42;;;;;;;7.20;4.28;;;15.30;99.90;;;;;;5035530;28;20053;-81
2021/10/21 05:32:09;;;;;;;8.45;4.00;;;15.10;99.90;;;;;;5036192;28;20103;-85
2021/10/21 05:34:38;;;;;;;6.35;3.58;;;15.00;99.90;;;;;;5035608;28;20119;-80
2021/10/21 05:37:06;;;;;;;13.93;4.40;;;15.00;99.90;;;;;;5035117;28;20129;-92
2021/10/21 05:39:33;;;;;;;7.85;4.20;;;14.90;99.90;;;;;;5043367;28;20061;-84
2021/10/21 05:42:04;;;;;;;6.63;3.50;;;14.80;99.90;;;;;;5054524;28;20095;-79
2021/10/21 05:44:31;;;;;;;9.13;3.67;;;14.70;99.90;;;;;;5042078;28;20130;-80
2021/10/21 05:46:58;;;;;;;10.32;3.92;;;14.70;99.90;;;;;;5053523;28;20048;-79
2021/10/21 05:49:25;;;;;;;6.10;3.45;;;14.60;99.90;;;;;;5070851;28;20076;-80
2021/10/21 05:51:52;;;;;;;9.77;3.35;;;14.60;99.90;;;;;;5056918;28;20053;-78
2021/10/21 05:54:18;;;;;;;8.23;3.78;;;14.60;99.90;;;;;;5052081;28;20076;-80
2021/10/21 05:56:45;;;;;;;3.55;2.00;;;14.60;99.90;;;;;;5052463;28;20132;-80
2021/10/21 05:59:12;;;;;;;7.63;2.28;;;14.30;99.90;;;;;;5054543;28;20079;-82
2021/10/21 06:01:38;;;;;;;4.40;1.35;;;13.90;99.90;;;;;;5073522;28;20516;-82
2021/10/21 06:04:08;;;;;;;5.82;1.30;;;13.40;99.90;;;;;;5056431;28;20045;-83
2021/10/21 06:06:37;;;;;;;3.10;1.23;;;13.10;99.90;;;;;;5056334;28;20048;-83
2021/10/21 06:09:04;;;;;;;3.47;1.00;;;13.00;99.90;;;;;;5066598;28;20076;-83
2021/10/21 06:11:34;;;;;;;6.05;1.40;;;12.80;99.90;;;;;;5035182;28;20132;-83
2021/10/21 06:14:02;;;;;;;5.60;1.50;;;12.80;99.90;;;;;;5053297;28;20084;-83
2021/10/21 06:16:30;;;;;;;3.15;1.45;;;13.00;99.90;;;;;;5052804;28;20164;-81
2021/10/21 06:18:57;;;;;;;3.50;1.27;;;12.90;99.90;;;;;;5052537;28;20137;-82
2021/10/21 06:21:25;;;;;;;2.83;1.35;;;12.90;99.90;;;;;;5052697;28;20088;-82
2021/10/21 06:23:53;;;;;;;4.50;1.83;;;13.00;99.90;;;;;;5050253;28;20640;-81
2021/10/21 06:26:20;;;;;;;3.17;1.73;;;13.00;99.90;;;;;;5052478;28;20128;-81
2021/10/21 06:28:51;;;;;;;3.13;1.92;;;13.10;99.90;;;;;;5034975;28;20865;-81
2021/10/21 06:31:20;;;;;;;4.50;2.10;;;13.10;99.90;;;;;;5053352;28;20099;-81
2021/10/21 06:36:37;;;;;;;4.50;2.67;;;13.10;99.90;;;;;;5065372;28;20129;-77
2021/10/21 06:39:04;;;;;;;9.90;3.08;;;13.00;99.90;;;;;;5068557;28;20457;-78
2021/10/21 06:41:31;;;;;;;7.80;2.70;;;13.00;99.90;;;;;;5049764;28;20471;-77
2021/10/21 06:43:58;;;;;;;6.45;1.95;;;13.20;99.90;;;;;;5062375;28;20106;-77
2021/10/21 06:46:26;;;;;;;5.82;2.10;;;13.10;99.90;;;;;;5050139;28;20095;-77
2021/10/21 06:48:54;;;;;;;6.65;2.17;;;13.10;99.90;;;;;;5052485;28;20163;-77
2021/10/21 06:51:22;;;;;;;3.80;1.95;;;13.00;99.90;;;;;;5052718;28;20080;-77
2021/10/21 06:53:48;;;;;;;3.90;1.88;;;13.00;99.90;;;;;;5067570;28;20533;-77
2021/10/21 06:56:15;;;;;;;6.85;2.53;;;13.10;99.90;;;;;;5050952;28;20135;-77
2021/10/21 06:58:42;;;;;;;5.82;2.40;;;13.20;99.90;;;;;;5067810;28;20078;-77
2021/10/21 07:01:08;;;;;;;2.97;1.85;;;13.30;99.90;;;;;;5069176;28;20135;-78
2021/10/21 07:03:35;;;;;;;12.32;1.70;;;13.30;99.90;;;;;;5048723;28;20052;-78
2021/10/21 07:06:02;;;;;;;9.35;1.90;;;13.40;99.90;;;;;;5066380;28;20091;-77
2021/10/21 07:08:29;;;;;;;4.43;1.92;;;13.60;99.90;;;;;;5047847;28;20141;-78
2021/10/21 07:10:57;;;;;;;3.40;1.35;;;13.50;99.90;;;;;;5065935;28;20149;-78
2021/10/21 07:13:24;;;;;;;3.88;1.88;;;13.60;99.90;;;;;;5065763;28;20060;-78
2021/10/21 07:16:05;;;;;;;4.80;1.40;;;13.80;99.90;;;;;;5066159;28;20048;-78
2021/10/21 07:18:32;;;;;;;4.93;1.17;;;14.00;99.90;;;;;;5066529;28;20052;-78
2021/10/21 07:20:59;;;;;;;3.80;1.30;;;13.80;99.90;;;;;;5067083;28;20446;-78
2021/10/21 07:23:26;;;;;;;7.47;1.60;;;13.60;99.90;;;;;;5065837;28;20090;-78
2021/10/21 07:25:54;;;;;;;3.97;1.40;;;13.50;99.90;;;;;;5066651;28;20431;-78
2021/10/21 07:28:22;;;;;;;5.38;1.35;;;13.50;99.90;;;;;;5066588;28;20819;-78
2021/10/21 07:30:57;;;;;;;3.85;1.52;;;13.60;99.90;;;;;;5051580;28;20057;-78
2021/10/21 07:33:24;;;;;;;5.78;1.77;;;13.70;99.90;;;;;;5055363;28;20052;-78
2021/10/21 07:35:52;;;;;;;4.03;1.60;;;13.80;99.90;;;;;;5068555;28;20048;-77
2021/10/21 07:38:19;;;;;;;5.18;1.38;;;13.90;99.90;;;;;;5049711;28;20048;-77
2021/10/21 07:40:46;;;;;;;5.45;1.25;;;14.00;99.90;;;;;;5050044;28;20149;-77
2021/10/21 07:43:13;;;;;;;2.50;1.30;;;14.20;99.90;;;;;;5066708;28;20139;-77
2021/10/21 07:45:41;;;;;;;2.88;1.50;;;14.30;99.90;;;;;;5067517;28;20072;-77
2021/10/21 07:48:08;;;;;;;10.98;1.27;;;14.40;99.90;;;;;;5049067;28;20084;-77
2021/10/21 07:50:36;;;;;;;8.18;1.38;;;14.60;99.90;;;;;;5066992;28;20053;-77
2021/10/21 07:53:06;;;;;;;7.20;1.27;;;14.80;99.90;;;;;;5067092;28;20095;-77
2021/10/21 07:55:34;;;;;;;4.60;0.82;;;14.70;99.90;;;;;;5049165;28;20049;-77
2021/10/21 07:58:00;;;;;;;2.45;0.88;;;14.70;99.90;;;;;;5048513;28;20617;-76
2021/10/21 08:00:27;;;;;;;2.45;0.90;;;14.50;99.90;;;;;;5050493;28;20080;-77
2021/10/21 08:02:55;;;;;;;5.43;1.20;;;14.20;99.90;;;;;;5066383;28;20168;-76
2021/10/21 08:05:23;;;;;;;3.40;1.42;;;14.10;99.90;;;;;;5064472;28;20052;-76
2021/10/21 08:07:49;;;;;;;2.08;0.77;;;14.10;99.90;;;;;;5057459;28;20129;-76
2021/10/21 08:10:23;;;;;;;4.30;1.02;;;13.90;99.90;;;;;;5064245;28;20048;-76
2021/10/21 08:12:51;;;;;;;3.97;1.40;;;13.80;99.90;;;;;;5046773;28;20147;-76
2021/10/21 08:15:18;;;;;;;3.33;0.80;;;13.80;99.90;;;;;;5047463;28;20132;-77
2021/10/21 08:17:45;;;;;;;3.60;1.58;;;13.80;99.90;;;;;;5046572;28;20846;-77
2021/10/21 08:20:13;;;;;;;8.55;1.08;;;13.90;99.90;;;;;;5064609;28;20151;-77
2021/10/21 08:22:42;;;;;;;3.63;1.10;;;14.10;99.90;;;;;;5063546;28;20076;-76
2021/10/21 08:25:10;;;;;;;7.78;0.80;;;14.30;99.90;;;;;;5063776;28;20062;-76
2021/10/21 08:27:38;;;;;;;2.53;0.90;;;14.50;99.90;;;;;;5064431;28;20048;-77
2021/10/21 08:30:06;;;;;;;2.83;1.13;;;14.50;99.90;;;;;;5064727;28;20793;-77
2021/10/21 08:32:35;;;;;;;3.30;1.02;;;14.40;99.90;;;;;;5067213;28;20076;-78
2021/10/21 08:35:02;;;;;;;1.45;0.57;;;14.40;99.90;;;;;;5050512;28;20084;-79
2021/10/21 08:37:33;;;;;;;1.58;0.70;;;14.20;99.90;;;;;;5069377;28;20447;-78
2021/10/21 08:40:01;;;;;;;3.13;0.93;;;13.80;99.90;;;;;;5069199;28;20066;-76
2021/10/21 08:42:28;;;;;;;4.75;0.63;;;13.50;99.90;;;;;;5066575;28;20131;-78
2021/10/21 08:44:56;;;;;;;7.30;1.15;;;13.40;99.90;;;;;;5068992;28;20087;-78
2021/10/21 08:47:25;;;;;;;5.30;0.88;;;13.30;99.90;;;;;;5050627;28;20568;-77
2021/10/21 08:49:55;;;;;;;1.67;0.60;;;13.10;99.90;;;;;;5050965;28;20148;-78
2021/10/21 08:52:22;;;;;;;5.35;0.75;;;13.20;99.90;;;;;;5047274;28;20137;-78
2021/10/21 08:54:49;;;;;;;5.53;0.60;;;13.10;99.90;;;;;;5060704;28;20087;-78
2021/10/21 08:57:16;;;;;;;4.78;0.60;;;13.10;99.90;;;;;;5072136;28;20143;-78
2021/10/21 08:59:46;;;;;;;1.85;0.70;;;13.10;99.90;;;;;;5069506;28;20080;-78
2021/10/21 09:02:21;;;;;;;3.58;0.98;;;13.00;99.90;;;;;;5060260;28;20135;-78
2021/10/21 09:10:13;;;;;;;3.38;0.70;;;12.80;99.90;;;;;;5066287;28;20709;-78
2021/10/21 09:12:48;;;;;;;4.80;0.77;;;12.70;99.90;;;;;;5062702;28;20045;-78
2021/10/21 09:15:17;;;;;;;1.48;0.68;;;12.60;99.90;;;;;;5053082;28;20083;-77
2021/10/21 09:17:46;;;;;;;2.67;0.80;;;12.60;99.90;;;;;;5052956;28;20131;-78
2021/10/21 09:20:40;;;;;;;2.88;0.75;;;12.40;99.90;;;;;;5054166;28;20076;-78
2021/10/21 09:23:12;;;;;;;3.10;0.70;;;12.40;99.90;;;;;;5047177;28;20135;-78
2021/10/21 09:25:41;;;;;;;5.18;0.70;;;12.40;99.90;;;;;;5069460;28;20075;-78
2021/10/21 09:28:18;;;;;;;2.72;0.60;;;12.40;99.90;;;;;;5070565;28;20040;-78
2021/10/21 09:30:57;;;;;;;1.67;0.50;;;12.50;99.90;;;;;;5052910;28;20076;-78
2021/10/21 09:33:25;;;;;;;2.17;0.80;;;12.50;99.90;;;;;;5070923;28;20051;-78
2021/10/21 09:35:57;;;;;;;5.30;0.77;;;12.50;99.90;;;;;;5050977;28;20049;-79
2021/10/21 09:38:33;;;;;;;1.50;0.32;;;12.40;99.90;;;;;;5046118;28;20084;-78
2021/10/21 09:41:22;;;;;;;5.10;0.60;;;12.40;99.90;;;;;;5041694;28;20053;-78
2021/10/21 09:43:56;;;;;;;2.10;0.70;;;12.40;99.90;;;;;;5051825;28;20080;-78
2021/10/21 09:46:42;;;;;;;4.53;0.73;;;12.20;99.90;;;;;;5051885;28;20134;-78
2021/10/21 09:49:17;;;;;;;8.18;1.00;;;12.30;99.90;;;;;;5070373;28;20048;-80
2021/10/21 09:51:50;;;;;;;13.00;1.00;;;12.00;99.90;;;;;;5054501;28;20090;-79
2021/10/21 09:54:18;;;;;;;1.45;0.40;;;11.90;99.90;;;;;;5046881;28;20481;-80
2021/10/21 09:56:57;;;;;;;0.95;0.50;;;11.80;99.90;;;;;;5054512;28;20144;-79
2021/10/21 09:59:28;;;;;;;3.60;0.50;;;11.90;99.90;;;;;;5034857;28;20073;-79
2021/10/21 10:01:59;;;;;;;1.42;0.60;;;11.90;99.90;;;;;;5052377;28;20139;-79
2021/10/21 10:04:28;;;;;;;2.25;0.50;;;11.90;99.90;;;;;;5052211;28;20056;-79
2021/10/21 10:06:58;;;;;;;2.05;0.63;;;12.00;99.90;;;;;;5054895;28;20080;-78
2021/10/21 10:09:34;;;;;;;1.13;0.57;;;12.00;99.90;;;;;;5050060;28;20049;-78
2021/10/21 10:12:04;;;;;;;3.15;0.80;;;12.00;99.90;;;;;;5053529;28;20204;-78
2021/10/21 10:14:52;;;;;;;2.28;0.40;;;12.00;99.90;;;;;;5069099;28;20555;-79
2021/10/21 10:17:21;;;;;;;0.60;0.60;;;11.90;99.90;;;;;;5053853;28;20465;-78
2021/10/21 10:19:50;;;;;;;2.88;0.82;;;11.70;99.90;;;;;;5071668;28;20126;-78
2021/10/21 10:22:31;;;;;;;4.13;0.82;;;11.70;99.90;;;;;;5071094;28;20144;-78
2021/10/21 10:24:58;;;;;;;1.48;0.50;;;11.60;99.90;;;;;;5046486;28;20075;-79
2021/10/21 10:27:30;;;;;;;2.65;0.80;;;11.50;99.90;;;;;;5052951;28;20135;-79
2021/10/21 10:30:01;;;;;;;2.97;0.75;;;11.50;99.90;;;;;;5070954;28;20083;-79
2021/10/21 10:32:35;;;;;;;3.92;0.50;;;11.50;99.90;;;;;;5076704;28;20067;-78
2021/10/21 10:35:07;;;;;;;7.15;0.40;;;11.60;99.90;;;;;;5076576;28;20049;-79
2021/10/21 10:37:56;;;;;;;3.17;0.50;;;11.50;99.90;;;;;;5055307;28;20052;-78
2021/10/21 10:41:01;;;;;;;1.67;0.60;;;11.50;99.90;;;;;;5062396;28;20143;-79
2021/10/21 10:43:41;;;;;;;2.42;0.60;;;11.60;99.90;;;;;;5066300;28;20443;-78
2021/10/21 10:46:11;;;;;;;1.52;0.50;;;11.70;99.90;;;;;;5052720;28;20064;-79
2021/10/21 10:48:51;;;;;;;5.97;0.73;;;11.70;99.90;;;;;;5050665;28;20188;-78
2021/10/21 10:51:19;;;;;;;1.00;0.50;;;11.80;99.90;;;;;;5068235;28;20451;-79
2021/10/21 10:54:01;;;;;;;3.75;0.47;;;12.10;99.90;;;;;;5048425;28;20477;-78
2021/10/21 10:56:37;;;;;;;7.50;0.80;;;12.30;99.90;;;;;;5065547;28;20052;-79
2021/10/21 10:59:29;;;;;;;2.90;0.73;;;12.40;99.90;;;;;;5047443;28;20099;-79
2021/10/21 11:01:56;;;;;;;3.22;0.68;;;12.50;99.90;;;;;;5048734;28;20582;-80
2021/10/21 11:04:51;;;;;;;2.92;1.77;;;12.50;99.90;;;;;;5053284;28;20155;-79
2021/10/21 11:07:24;;;;;;;0.85;0.50;;;12.80;99.90;;;;;;5070771;28;20124;-79
2021/10/21 11:09:53;;;;;;;2.58;0.82;;;12.80;99.90;;;;;;5049834;28;20133;-79
2021/10/21 11:12:21;;;;;;;5.95;0.50;;;12.80;99.90;;;;;;5051966;28;20064;-80
2021/10/21 11:14:54;;;;;;;1.40;0.68;;;12.70;99.90;;;;;;5071748;28;20060;-81
2021/10/21 11:17:42;;;;;;;1.50;0.65;;;12.60;99.90;;;;;;5052795;28;20088;-78
2021/10/21 11:20:27;;;;;;;3.30;0.60;;;12.60;99.90;;;;;;5071417;28;20072;-79
2021/10/21 11:23:02;;;;;;;8.70;0.75;;;12.50;99.90;;;;;;5053308;28;20588;-79
2021/10/21 11:25:31;;;;;;;2.53;0.50;;;12.50;99.90;;;;;;5053492;28;20796;-80
2021/10/21 11:28:00;;;;;;;1.40;0.40;;;12.40;99.90;;;;;;5053331;28;20117;-78
2021/10/21 11:30:30;;;;;;;5.03;0.68;;;12.40;99.90;;;;;;5053731;28;20113;-79
2021/10/21 11:33:08;;;;;;;6.82;0.57;;;12.50;99.90;;;;;;5055042;28;20063;-78
2021/10/21 11:35:38;;;;;;;3.83;0.75;;;12.50;99.90;;;;;;5054052;28;20529;-81
2021/10/21 11:38:13;;;;;;;2.42;0.52;;;12.40;99.90;;;;;;5071288;28;20048;-80
2021/10/21 11:40:52;;;;;;;1.35;0.70;;;12.30;99.90;;;;;;5051381;28;20129;-80
2021/10/21 11:43:26;;;;;;;4.75;1.20;;;12.30;99.90;;;;;;5052849;28;20136;-80
2021/10/21 11:45:59;;;;;;;5.90;0.93;;;12.30;99.90;;;;;;5071126;28;20087;-80
2021/10/21 11:48:36;;;;;;;2.85;0.98;;;12.40;99.90;;;;;;5069982;28;20131;-78
2021/10/21 11:51:09;;;;;;;4.40;0.82;;;12.60;99.90;;;;;;5070359;28;20084;-79
2021/10/21 11:53:37;;;;;;;9.02;1.00;;;12.60;99.90;;;;;;5049844;28;20114;-77
2021/10/21 11:56:05;;;;;;;3.25;0.68;;;12.70;99.90;;;;;;5051604;28;20132;-78
2021/10/21 11:58:36;;;;;;;4.70;0.88;;;12.80;99.90;;;;;;5070195;28;20048;-78
2021/10/21 12:01:06;;;;;;;5.38;1.25;;;12.70;99.90;;;;;;5052175;28;20098;-79
2021/10/21 12:03:40;;;;;;;4.60;0.65;;;12.80;99.90;;;;;;5069534;28;20056;-78
2021/10/21 12:06:08;;;;;;;4.63;0.90;;;12.70;99.90;;;;;;5069882;28;20668;-78
2021/10/21 12:08:36;;;;;;;9.75;1.05;;;12.80;99.90;;;;;;5049215;28;20072;-78
2021/10/21 12:11:05;;;;;;;9.35;1.27;;;12.80;99.90;;;;;;5067162;28;20133;-77
2021/10/21 12:13:35;;;;;;;3.92;0.68;;;12.70;99.90;;;;;;5067078;28;20071;-77
2021/10/21 12:16:10;;;;;;;10.27;1.08;;;12.60;99.90;;;;;;5068562;28;20163;-77
2021/10/21 12:18:57;;;;;;;5.30;1.70;;;12.70;99.90;;;;;;5050912;28;20059;-76
2021/10/21 12:21:35;;;;;;;6.93;0.63;;;13.00;99.90;;;;;;5046648;28;20175;-76
2021/10/21 12:24:02;;;;;;;3.85;0.75;;;13.00;99.90;;;;;;5048998;28;20049;-75
2021/10/21 12:26:29;;;;;;;5.15;0.63;;;13.00;99.90;;;;;;5048266;28;20056;-75
2021/10/21 12:29:07;;;;;;;1.75;0.40;;;13.00;99.90;;;;;;5047012;28;20440;-75
2021/10/21 12:31:36;;;;;;;4.85;0.60;;;13.10;99.90;;;;;;5068693;28;20084;-75
2021/10/21 12:34:10;;;;;;;1.60;0.25;;;13.40;99.90;;;;;;5050624;28;20049;-75
2021/10/21 12:36:42;;;;;;;4.15;0.73;;;13.50;99.90;;;;;;5068604;28;20088;-74
2021/10/21 12:39:11;;;;;;;10.80;0.63;;;13.80;99.90;;;;;;5067394;28;20050;-74
2021/10/21 12:41:57;;;;;;;2.75;0.55;;;13.80;99.90;;;;;;5063753;28;20143;-74
2021/10/21 12:44:33;;;;;;;6.70;0.57;;;13.90;99.90;;;;;;5065383;28;20044;-74
2021/10/21 12:47:16;;;;;;;1.52;0.40;;;13.90;99.90;;;;;;5067409;28;20118;-74
2021/10/21 12:50:06;;;;;;;2.70;0.60;;;14.80;99.90;;;;;;5063888;28;20076;-74
2021/10/21 12:52:38;;;;;;;1.77;0.45;;;14.90;99.90;;;;;;5066891;28;20044;-74
2021/10/21 12:55:24;;;;;;;1.77;0.47;;;15.00;99.90;;;;;;5052914;28;20497;-74
2021/10/21 12:58:02;;;;;;;1.23;0.65;;;15.10;99.90;;;;;;5067127;28;20076;-75
2021/10/21 13:00:37;;;;;;;2.15;0.70;;;15.90;99.90;;;;;;5049893;28;20066;-75
2021/10/21 13:03:10;;;;;;;4.10;0.55;;;16.80;99.90;;;;;;5066236;28;20140;-75